Route Details

Aircraft Information
Group: North America Fleet
Types: B738, B752, B762, B763
Route Data
Distance: 464nm
Duration: 1h 44m
Origin METAR: KATL 072352Z 16004KT 10SM FEW200 BKN250 17/04 A3027 RMK AO2 SLP251 T01670039 10200 20167 53005
Dest. METAR: KIAD 072352Z 18004KT 10SM BKN150 OVC200 10/00 A3016 RMK AO2 SLP215 T01000000 10111 20083 56006
Freight Data
(for Feb 8, 2023)
Load Factor:
30%
Manifested Cargo: 17,560lbs
Financial History
Total Freight: 91,505lbs
Average Load: 0lbs/flt
Fuel Used: 9,183lbs
Avg. Fuel Used: 0lbs/flt
Fuel Expense: $5,142
Avg. Fuel Expense: $0
Avg. Fuel Cost: $0/lbs
Total Gross Income: $233,338
Pilot Pay: $348
Total Expenses: $51,262
Total Revenue: $176,011
Average Revenue: $0

Capitol Logistics 395




KATL
Hartsfield - Jackson Atlanta International Airport
Atlanta, Georgia
KIAD
Washington Dulles International Airport
Dulles, Virginia

Activity Log

Date Flight Route Aircraft Duration
11/22/2022 CPX395 JACCC2 KELLN DCT BYJAC Q60 JAXSN DCT DORRN CAVLR4 B752 1h 32m
09/07/2022 CPX395 Not Available B738 1h 38m